This is the latest recevied weather packets stored in our database for station/object OK2BOZ-1. If no packets are shown the sender has not sent any weather packets the latest 10 day(s).
| Time | Temp. | Humidity | Pressure | Rain* | Wind** | Luminosity | Snow |
|---|---|---|---|---|---|---|---|
| 1777782516 | 11.67° C | 73% | 1018.9 hPa | - | - | - | - |
| 1777782202 | 11.11° C | 93% | 1018.8 hPa | - | - | - | - |
| 1777781888 | 10° C | 10% | - | - | - | - | - |
| 1777781574 | 8.33° C | 10% | - | - | - | - | - |
| 1777781261 | 6.67° C | 10% | - | - | - | - | - |
| 1777704676 | 21.11° C | 44% | 1024.8 hPa | - | - | - | - |
| 1777704361 | 20° C | 46% | 1024.8 hPa | - | - | - | - |
| 1777704046 | 20° C | 46% | 1024.8 hPa | - | - | - | - |
| 1777703731 | 20° C | 47% | 1024.8 hPa | - | - | - | - |
| 1777703416 | 20° C | 46% | 1024.8 hPa | - | - | - | - |
| 1777703101 | 19.44° C | 47% | 1024.8 hPa | - | - | - | - |
| 1777702785 | 18.89° C | 47% | 1024.8 hPa | - | - | - | - |
| 1777702470 | 19.44° C | 47% | 1024.8 hPa | - | - | - | - |
| 1777702155 | 18.89° C | 48% | 1024.7 hPa | - | - | - | - |
| 1777701841 | 18.33° C | 49% | 1024.7 hPa | - | - | - | - |
| 1777701526 | 18.33° C | 49% | 1024.8 hPa | - | - | - | - |
| 1777701211 | 17.78° C | 51% | 1024.7 hPa | - | - | - | - |
| 1777700896 | 18.89° C | 46% | 1024.8 hPa | - | - | - | - |
| 1777700581 | 18.89° C | 49% | 1024.8 hPa | - | - | - | - |
| 1777700267 | 17.22° C | 53% | 1024.7 hPa | - | - | - | - |
| 1777699637 | 15° C | 57% | 1024.8 hPa | - | - | - | - |
| 1777699323 | 14.44° C | 56% | 1024.7 hPa | - | - | - | - |
| 1777699008 | 15.56° C | 53% | 1024.8 hPa | - | - | - | - |
| 1777698693 | 16.67° C | 51% | 1024.7 hPa | - | - | - | - |
| 1777698379 | 16.67° C | 53% | 1024.7 hPa | - | - | - | - |
* Rain since midnight (hover to see other rain measurements)
** Current wind speed in m/s (hover to see current wind gust speed)